createdAt,value
2023-01-09T00:46:17.788Z,56.20
2023-01-09T00:54:21.133Z,57.60
2023-01-09T00:56:38.494Z,57.70
2023-01-09T00:59:15.383Z,57.90
2023-01-09T01:01:45.847Z,58.00
2023-01-09T01:13:13.875Z,57.60
2023-01-09T01:16:09.382Z,57.20
2023-01-09T01:19:34.621Z,57.30
2023-01-09T01:23:30.688Z,57.20
2023-01-09T01:26:07.398Z,56.80
2023-01-09T01:28:41.350Z,56.20
2023-01-09T01:31:57.693Z,56.40
2023-01-09T01:34:47.671Z,56.20
2023-01-09T01:37:30.573Z,55.80
2023-01-09T01:40:07.839Z,55.50
2023-01-09T01:42:53.891Z,55.40
2023-01-09T01:45:37.190Z,55.50
2023-01-09T01:48:26.500Z,55.30
2023-01-09T01:52:06.925Z,55.30
2023-01-09T04:42:29.713Z,54.00
2023-01-09T04:45:29.662Z,54.60
2023-01-09T04:48:54.858Z,54.30
2023-01-09T04:51:21.375Z,53.70
2023-01-09T04:54:14.316Z,54.30
2023-01-09T04:57:02.079Z,54.50
2023-01-09T04:59:38.499Z,54.30
2023-01-09T06:34:34.822Z,55.70
2023-01-09T06:40:31.743Z,55.60
2023-01-09T06:46:17.971Z,55.70
2023-01-09T06:48:46.701Z,55.00
2023-01-09T06:51:17.023Z,54.60
2023-01-09T06:53:45.737Z,55.60
2023-01-09T06:56:14.445Z,55.70
2023-01-09T06:58:43.052Z,55.60
2023-01-09T07:01:17.183Z,56.80
2023-01-09T07:03:46.021Z,56.40
2023-01-09T07:06:16.777Z,55.40
2023-01-09T07:08:47.778Z,54.70
2023-01-09T07:11:16.865Z,54.10
2023-01-09T07:13:45.631Z,54.10
2023-01-09T07:16:14.655Z,54.30
2023-01-09T07:18:43.688Z,54.60
2023-01-09T07:21:12.571Z,53.90
2023-01-09T07:23:43.901Z,54.20
2023-01-09T07:26:12.638Z,53.70
2023-01-09T07:28:41.666Z,53.80
2023-01-09T07:31:10.562Z,53.70
2023-01-09T07:33:40.440Z,54.10
2023-01-09T07:36:09.959Z,53.60
2023-01-09T07:38:38.623Z,53.10
2023-01-09T07:41:08.755Z,52.10
2023-01-09T07:43:39.084Z,50.50
2023-01-09T07:46:08.355Z,50.00
2023-01-09T07:48:37.163Z,49.90
2023-01-09T07:51:06.312Z,49.80
2023-01-09T07:53:34.993Z,47.70
2023-01-09T07:56:13.976Z,48.60
2023-01-09T07:58:44.163Z,48.40
2023-01-09T08:01:13.588Z,49.30
2023-01-09T08:03:44.294Z,49.40
2023-01-09T08:06:13.020Z,48.40
2023-01-09T08:09:25.161Z,48.10
2023-01-09T08:11:54.180Z,48.30
2023-01-09T08:14:24.931Z,47.80
2023-01-09T08:16:53.582Z,46.50
2023-01-09T08:19:22.226Z,46.80
2023-01-09T08:21:50.909Z,46.90
2023-01-09T08:24:19.631Z,46.20
2023-01-09T08:26:48.456Z,45.10
2023-01-09T08:29:17.146Z,44.80
2023-01-09T08:31:47.597Z,43.80
2023-01-09T08:34:16.320Z,44.00
2023-01-09T08:36:44.980Z,43.40
2023-01-09T08:39:13.968Z,43.20
2023-01-09T08:42:00.062Z,42.10
2023-01-09T08:44:46.362Z,41.70
2023-01-09T08:47:21.516Z,41.30
2023-01-09T08:49:50.134Z,42.40
2023-01-09T08:52:18.876Z,41.70
2023-01-09T08:54:47.500Z,40.60
2023-01-09T08:57:16.141Z,39.70
2023-01-09T08:59:44.801Z,40.80
2023-01-09T09:02:13.535Z,40.30
2023-01-09T09:04:43.654Z,37.70
2023-01-09T09:07:12.317Z,37.10
2023-01-09T09:09:40.949Z,37.60
2023-01-09T09:12:09.891Z,37.30
2023-01-09T09:15:04.481Z,36.80
2023-01-09T09:17:33.958Z,36.50
2023-01-09T09:20:04.070Z,36.80
2023-01-09T09:22:32.696Z,34.70
2023-01-09T09:25:01.418Z,35.40
2023-01-09T09:27:30.083Z,35.00
2023-01-09T09:29:58.873Z,33.80
2023-01-09T09:32:27.461Z,34.00
2023-01-09T09:34:56.065Z,34.40
2023-01-09T09:37:26.534Z,33.80
2023-01-09T09:39:55.353Z,34.40
2023-01-09T09:43:10.037Z,34.80
2023-01-09T09:45:52.179Z,33.50
2023-01-09T09:48:37.982Z,34.70
2023-01-09T09:51:33.765Z,35.00
2023-01-09T09:54:13.836Z,36.00
2023-01-09T09:56:50.803Z,35.90
2023-01-09T09:59:26.632Z,35.70
2023-01-09T10:02:00.438Z,36.40
2023-01-09T10:04:34.578Z,36.80
2023-01-09T10:07:09.635Z,36.80
2023-01-09T10:09:49.643Z,36.50
2023-01-09T10:12:30.368Z,36.10
2023-01-09T10:15:01.565Z,37.00
2023-01-09T10:17:51.751Z,37.30
2023-01-09T10:20:51.301Z,36.40
2023-01-09T10:23:55.977Z,35.90
2023-01-09T10:26:33.998Z,34.40
2023-01-09T10:29:52.652Z,35.20
2023-01-09T10:32:57.640Z,34.40
2023-01-09T10:36:23.606Z,34.60
2023-01-09T10:38:57.515Z,35.30
2023-01-09T10:41:35.550Z,35.70
2023-01-09T10:44:13.376Z,35.80
2023-01-09T10:46:51.001Z,37.20
2023-01-09T10:49:21.088Z,37.70
2023-01-09T10:51:52.905Z,37.30
2023-01-09T10:54:24.249Z,37.20
2023-01-09T10:56:57.832Z,36.70
2023-01-09T10:59:27.102Z,37.20
2023-01-09T11:01:55.851Z,37.10
2023-01-09T11:04:30.135Z,37.10
2023-01-09T11:07:04.003Z,36.10
2023-01-09T11:09:57.497Z,36.30
2023-01-09T11:12:30.967Z,35.70
2023-01-09T11:15:32.129Z,35.90
2023-01-09T11:18:24.587Z,35.40
2023-01-09T11:20:53.654Z,34.40
2023-01-09T11:23:32.931Z,35.20
2023-01-09T11:26:03.751Z,35.90
2023-01-09T11:28:33.668Z,36.00
2023-01-09T11:31:03.905Z,36.40
2023-01-09T11:33:47.855Z,35.40
2023-01-09T11:36:19.158Z,35.40
2023-01-09T11:38:53.376Z,35.00
2023-01-09T11:41:25.435Z,34.50
2023-01-09T11:43:59.169Z,34.20
2023-01-09T11:46:38.744Z,33.80
2023-01-09T11:49:23.759Z,35.00
2023-01-09T11:52:17.335Z,33.50
2023-01-09T11:54:53.473Z,34.10
2023-01-09T11:57:23.827Z,34.00
2023-01-09T11:59:55.588Z,34.60
2023-01-09T12:02:47.241Z,35.00
2023-01-09T12:05:33.999Z,34.00
2023-01-09T12:08:22.283Z,34.00
2023-01-09T12:11:23.462Z,34.10
2023-01-09T12:14:10.500Z,34.50
2023-01-09T12:16:52.550Z,34.50
2023-01-09T12:19:56.675Z,34.20
2023-01-09T12:22:38.107Z,35.00
2023-01-09T12:25:35.473Z,35.00
2023-01-09T12:28:49.660Z,33.60
2023-01-09T12:31:41.593Z,35.60
2023-01-09T12:34:33.764Z,35.70
2023-01-09T12:37:37.193Z,34.50
2023-01-09T12:40:28.406Z,32.10
2023-01-09T12:43:12.820Z,33.50
2023-01-09T12:46:01.269Z,33.20
2023-01-09T12:49:04.963Z,32.80
2023-01-09T12:51:40.773Z,32.20
2023-01-09T12:54:21.315Z,32.80
2023-01-09T12:56:56.530Z,32.10
2023-01-09T12:59:34.212Z,31.40
2023-01-09T13:02:18.030Z,30.80
2023-01-09T13:04:54.478Z,32.30
2023-01-09T13:07:31.031Z,32.20
2023-01-09T13:10:08.676Z,32.40
2023-01-09T13:12:40.753Z,31.50
2023-01-09T13:15:29.747Z,30.30
2023-01-09T13:18:08.992Z,29.00
2023-01-09T13:20:45.782Z,29.20
2023-01-09T13:23:30.664Z,29.20
2023-01-09T13:26:02.713Z,28.20
2023-01-09T13:28:41.538Z,28.10
2023-01-09T13:32:05.669Z,28.10
2023-01-09T13:34:39.007Z,29.00
2023-01-09T13:37:22.226Z,29.40
2023-01-09T13:40:00.258Z,30.30
2023-01-09T13:42:46.334Z,29.80
2023-01-09T13:45:25.693Z,30.00
2023-01-09T13:48:27.421Z,30.80
2023-01-09T13:51:52.335Z,31.10
2023-01-09T13:55:03.187Z,31.50
2023-01-09T13:57:35.016Z,32.10
2023-01-09T14:00:52.868Z,33.20
2023-01-09T14:03:27.612Z,33.20
2023-01-09T14:06:20.459Z,32.30
2023-01-09T14:08:52.020Z,32.80
2023-01-09T14:11:29.203Z,33.10
2023-01-09T14:14:23.605Z,33.60
2023-01-09T14:16:52.354Z,35.20
2023-01-09T14:19:38.477Z,35.70
2023-01-09T14:22:09.249Z,35.80
2023-01-09T14:24:46.469Z,36.30
2023-01-09T14:28:19.907Z,36.30
2023-01-09T14:31:10.764Z,37.80
2023-01-09T14:33:39.629Z,37.40
2023-01-09T14:36:19.773Z,38.10
2023-01-09T14:38:52.520Z,38.40
2023-01-09T14:41:58.245Z,38.70
2023-01-09T14:44:33.790Z,38.90
2023-01-09T14:47:13.334Z,39.10
2023-01-09T14:49:49.962Z,39.80
2023-01-09T14:52:26.736Z,40.40
2023-01-09T14:55:00.487Z,41.70
2023-01-09T14:57:31.171Z,43.40
2023-01-09T15:00:05.135Z,44.60
2023-01-09T15:02:38.396Z,45.50
2023-01-09T15:05:11.964Z,45.40
2023-01-09T15:07:46.689Z,45.70
2023-01-09T15:10:21.123Z,46.40
2023-01-09T15:12:54.137Z,46.70
2023-01-09T15:15:25.859Z,46.80
2023-01-09T15:18:00.120Z,46.70
2023-01-09T15:20:31.877Z,46.80
2023-01-09T15:23:03.709Z,47.20
2023-01-09T15:25:39.184Z,47.40
2023-01-09T15:28:30.860Z,47.40
2023-01-09T15:31:10.917Z,47.80
2023-01-09T15:33:41.675Z,48.10
2023-01-09T15:36:18.512Z,47.70
2023-01-09T15:38:48.313Z,47.40
2023-01-09T15:41:40.889Z,47.00
2023-01-09T15:44:19.427Z,48.60
2023-01-09T15:46:51.924Z,50.40
2023-01-09T15:49:21.113Z,51.20
2023-01-09T15:51:51.641Z,53.30
2023-01-09T15:54:29.698Z,54.40
2023-01-09T15:57:36.004Z,53.60
2023-01-09T16:00:41.688Z,53.50
2023-01-09T16:03:23.138Z,53.00
2023-01-09T16:06:05.477Z,52.20
2023-01-09T16:08:38.401Z,51.00
2023-01-09T16:11:10.836Z,50.10
2023-01-09T16:13:47.485Z,49.70
2023-01-09T16:16:31.070Z,49.20
2023-01-09T16:19:01.594Z,48.80
2023-01-09T16:21:36.917Z,48.50
2023-01-09T16:24:27.661Z,48.10
2023-01-09T16:27:21.844Z,47.60
2023-01-09T16:29:56.339Z,47.70
2023-01-09T16:32:29.916Z,47.80
2023-01-09T16:35:05.497Z,47.90
2023-01-09T16:37:36.098Z,48.00
2023-01-09T16:40:32.449Z,48.40
2023-01-09T16:43:02.294Z,47.80
2023-01-09T16:45:37.660Z,47.30
2023-01-09T16:48:15.353Z,47.50
2023-01-09T16:50:45.827Z,47.80
2023-01-09T16:53:18.158Z,47.30
2023-01-09T16:55:47.638Z,47.40
2023-01-09T16:58:19.717Z,47.60
2023-01-09T17:00:49.106Z,47.70
2023-01-09T17:03:20.272Z,47.20
2023-01-09T17:05:54.029Z,48.00
2023-01-09T17:08:24.798Z,48.00
2023-01-09T17:10:56.282Z,47.90
2023-01-09T17:13:25.840Z,47.60
2023-01-09T17:15:55.904Z,47.60
2023-01-09T17:18:27.382Z,47.60
2023-01-09T17:20:59.922Z,47.90
2023-01-09T17:23:28.865Z,47.30
2023-01-09T17:26:18.301Z,47.90
2023-01-09T17:28:52.160Z,48.20
2023-01-09T17:31:21.157Z,49.70
2023-01-09T17:33:50.387Z,50.90
2023-01-09T17:36:30.828Z,51.80
2023-01-09T17:39:00.159Z,52.30
2023-01-09T17:41:32.078Z,53.00
2023-01-09T17:44:01.366Z,52.70
2023-01-09T17:46:33.936Z,52.40
2023-01-09T17:49:03.763Z,51.80
2023-01-09T17:51:33.943Z,50.50
2023-01-09T17:54:02.469Z,51.10
2023-01-09T17:56:37.405Z,51.40
2023-01-09T17:59:06.146Z,51.40
2023-01-09T18:01:34.689Z,51.30
2023-01-09T18:04:03.178Z,51.80
2023-01-09T18:06:33.359Z,51.40
2023-01-09T18:09:02.464Z,51.10
2023-01-09T18:11:31.049Z,51.60
2023-01-09T18:13:59.865Z,51.80
2023-01-09T18:16:29.577Z,51.60
2023-01-09T18:18:59.983Z,51.90
2023-01-09T18:21:30.919Z,51.90
2023-01-09T18:24:01.470Z,52.20
2023-01-09T18:26:30.110Z,51.70
2023-01-09T18:29:01.313Z,51.40
2023-01-09T18:31:31.513Z,51.30
2023-01-09T18:34:02.531Z,51.90
2023-01-09T18:36:31.687Z,51.50
2023-01-09T18:39:05.547Z,50.80
2023-01-09T18:41:34.140Z,50.10
2023-01-09T18:44:03.321Z,51.00
2023-01-09T18:46:32.457Z,50.10
2023-01-09T18:49:03.646Z,50.80
2023-01-09T18:51:34.387Z,50.30
2023-01-09T18:54:04.508Z,49.90
2023-01-09T18:56:33.042Z,49.60
2023-01-09T18:59:01.630Z,49.10
2023-01-09T19:01:31.726Z,48.80
2023-01-09T19:04:01.797Z,49.10
2023-01-09T19:06:31.803Z,48.60
2023-01-09T19:09:00.670Z,48.50
2023-01-09T19:11:31.583Z,47.50
2023-01-09T19:14:00.123Z,47.50
2023-01-09T19:16:28.871Z,48.20
2023-01-09T19:18:58.280Z,48.40
2023-01-09T19:21:27.396Z,47.60
2023-01-09T19:23:55.872Z,47.90
2023-01-09T19:26:26.579Z,47.40
2023-01-09T19:28:57.724Z,47.30
2023-01-09T19:31:28.650Z,47.60
2023-01-09T19:33:58.606Z,48.80
2023-01-09T19:36:27.733Z,48.30
2023-01-09T19:39:00.253Z,48.70
2023-01-09T19:41:29.697Z,49.80
2023-01-09T19:44:00.954Z,49.70
2023-01-09T19:46:30.802Z,50.30
2023-01-09T19:49:01.655Z,49.90
2023-01-09T19:51:30.402Z,49.90
2023-01-09T19:54:03.330Z,49.50
2023-01-09T19:56:35.650Z,49.40
2023-01-09T19:59:07.253Z,49.70
2023-01-09T20:01:39.075Z,49.80
2023-01-09T20:04:13.821Z,49.80
2023-01-09T20:06:45.399Z,49.60
2023-01-09T20:09:16.334Z,50.20
2023-01-09T20:11:45.796Z,50.90
2023-01-09T20:14:17.451Z,50.00
2023-01-09T20:16:48.813Z,51.00
2023-01-09T20:19:17.990Z,51.50
2023-01-09T20:21:46.643Z,52.10
2023-01-09T20:24:17.762Z,52.70
2023-01-09T20:26:47.440Z,53.40
2023-01-09T20:29:17.530Z,54.60
2023-01-09T20:31:46.187Z,54.20
2023-01-09T20:34:16.022Z,54.20
2023-01-09T20:36:44.851Z,54.30
2023-01-09T20:39:13.729Z,54.70
2023-01-09T20:41:42.446Z,54.90
2023-01-09T20:44:16.032Z,55.70
2023-01-09T20:46:48.372Z,55.90
2023-01-09T20:49:19.399Z,55.50
2023-01-09T20:51:51.065Z,55.40
2023-01-09T20:54:22.602Z,55.70
2023-01-09T20:56:51.555Z,55.00
2023-01-09T20:59:22.349Z,55.00
2023-01-09T21:01:53.061Z,55.40
2023-01-09T21:04:21.828Z,55.50
2023-01-09T21:06:50.966Z,55.60
2023-01-09T21:09:20.397Z,55.50
2023-01-09T21:11:50.277Z,55.50
2023-01-09T21:14:20.255Z,55.10
2023-01-09T21:16:55.012Z,55.30
2023-01-09T21:19:24.305Z,55.10
2023-01-09T21:21:53.495Z,54.40
2023-01-09T21:24:22.487Z,54.20
2023-01-09T21:26:51.264Z,54.10
2023-01-09T21:29:19.907Z,53.90
2023-01-09T21:31:48.600Z,53.40
2023-01-09T21:34:20.750Z,54.10
2023-01-09T21:36:50.078Z,54.20
2023-01-09T21:39:21.728Z,54.20
2023-01-09T21:42:07.951Z,54.20
2023-01-09T21:44:54.758Z,54.60
2023-01-09T21:47:23.564Z,55.10
2023-01-09T21:49:53.770Z,54.50
2023-01-09T21:52:22.669Z,54.60
2023-01-09T21:54:51.509Z,54.30
2023-01-09T21:57:20.280Z,54.40
2023-01-09T21:59:48.967Z,54.60
2023-01-09T22:02:17.610Z,54.30
2023-01-09T22:04:49.172Z,54.30
2023-01-09T22:07:19.642Z,54.10
2023-01-09T22:09:48.339Z,53.70
2023-01-09T22:12:16.993Z,53.20
2023-01-09T22:14:45.834Z,53.10
2023-01-09T22:17:14.457Z,53.10
2023-01-09T22:19:43.153Z,53.30
2023-01-09T22:22:11.875Z,53.20
2023-01-09T22:24:42.833Z,53.40
2023-01-09T22:27:11.680Z,54.40
2023-01-09T22:29:40.320Z,53.90
2023-01-09T22:32:09.206Z,53.90
2023-01-09T22:34:37.803Z,53.60
2023-01-09T22:37:06.419Z,53.60
2023-01-09T22:39:35.048Z,54.60
2023-01-09T22:42:05.319Z,55.20
2023-01-09T22:44:35.211Z,55.40
2023-01-09T22:47:03.885Z,55.40
2023-01-09T22:49:41.125Z,55.10
2023-01-09T22:52:20.057Z,55.30
2023-01-09T22:54:49.546Z,54.20
2023-01-09T22:57:19.584Z,53.70
2023-01-09T22:59:48.181Z,53.60
2023-01-09T23:02:16.775Z,52.80
2023-01-09T23:04:45.354Z,52.20
2023-01-09T23:07:14.872Z,52.40
2023-01-09T23:09:43.522Z,52.40
2023-01-09T23:12:13.684Z,52.40
2023-01-09T23:14:43.775Z,52.00
2023-01-09T23:17:13.023Z,50.90
2023-01-09T23:19:41.559Z,51.60
2023-01-09T23:22:10.053Z,52.00
2023-01-09T23:24:38.565Z,52.10
2023-01-09T23:27:07.843Z,52.20
2023-01-09T23:29:39.320Z,52.10
2023-01-09T23:32:09.811Z,51.80
2023-01-09T23:34:38.412Z,51.80
2023-01-09T23:37:09.200Z,51.50
2023-01-09T23:39:37.994Z,51.30
2023-01-09T23:42:24.083Z,51.30
2023-01-09T23:44:52.668Z,51.70
2023-01-09T23:47:22.686Z,51.70
2023-01-09T23:49:51.201Z,50.90
2023-01-09T23:52:19.790Z,51.90
2023-01-09T23:54:48.381Z,52.40
2023-01-09T23:57:17.101Z,52.00
2023-01-09T23:59:45.602Z,51.90
